Perrys Mills, New York
Current Conditions -  °F | °C
As of 9:15 PM on Thursday 20 Nov 2014 (Local Time) from KFSO Reporting Station
Broken Clouds Broken Clouds  
Wind Chill: 17°   Ceiling: 8500
Heat Index: 27°   Visibility: 10mi
Dew Point: 14°   Wind: 9mph
Humidity: 59%   Direction: 240°WSW
Pressure: 29.81"   Gusts: 16mph
Location:  44.9684°N, 73.45°W
Report Text: KFSO 210215Z AUTO 24008G14KT 10SM SCT046 BKN085 M03/M10 A2981 RMK AO2 T10301100
Loading
Personal Weather Stations






























Interactive Weather Map New forecast layout! Learn more

10-Day Weather Forecast

Advertisements
Track Severe Weather on mobile